createdAt,value
2019-05-02T00:04:36.695Z,29.90
2019-05-02T00:07:25.581Z,31.90
2019-05-02T00:13:29.433Z,32.38
2019-05-02T00:19:33.376Z,29.57
2019-05-02T00:22:22.282Z,29.35
2019-05-02T00:25:15.823Z,31.05
2019-05-02T00:28:01.868Z,29.25
2019-05-02T00:30:50.669Z,30.32
2019-05-02T00:33:39.588Z,31.15
2019-05-02T00:36:28.405Z,29.98
2019-05-02T00:39:17.307Z,28.75
2019-05-02T00:42:12.884Z,32.60
2019-05-02T00:44:56.790Z,29.32
2019-05-02T00:50:45.291Z,32.40
2019-05-02T00:53:32.115Z,29.45
2019-05-02T00:56:14.102Z,29.50
2019-05-02T00:59:07.534Z,29.42
2019-05-02T01:02:12.524Z,29.75
2019-05-02T01:05:03.189Z,31.52
2019-05-02T01:07:55.896Z,31.60
2019-05-02T01:10:42.537Z,31.42
2019-05-02T01:13:31.361Z,30.27
2019-05-02T01:16:20.339Z,31.12
2019-05-02T01:19:12.226Z,26.73
2019-05-02T01:21:59.836Z,31.20
2019-05-02T01:24:48.749Z,32.53
2019-05-02T01:31:06.149Z,30.68
2019-05-02T01:34:17.972Z,30.68
2019-05-02T01:37:23.591Z,27.75
2019-05-02T01:40:13.041Z,28.38
2019-05-02T01:43:25.521Z,30.30
2019-05-02T01:46:16.958Z,30.10
2019-05-02T01:49:05.624Z,27.13
2019-05-02T01:51:54.445Z,28.98
2019-05-02T01:54:45.664Z,27.60
2019-05-02T01:57:26.784Z,29.57
2019-05-02T02:00:15.699Z,27.52
2019-05-02T02:03:09.040Z,28.65
2019-05-02T02:05:55.369Z,28.38
2019-05-02T02:08:44.172Z,27.35
2019-05-02T02:11:33.805Z,27.80
2019-05-02T02:14:23.608Z,28.87
2019-05-02T02:17:15.626Z,29.07
2019-05-02T02:23:31.690Z,26.15
2019-05-02T02:26:39.556Z,27.77
2019-05-02T02:29:28.384Z,28.10
2019-05-02T02:32:20.282Z,26.93
2019-05-02T02:35:10.218Z,27.42
2019-05-02T02:37:58.405Z,30.27
2019-05-02T02:40:47.252Z,25.72
2019-05-02T02:43:36.063Z,29.27
2019-05-02T02:49:24.041Z,25.72
2019-05-02T02:52:11.344Z,28.80
2019-05-02T02:54:52.770Z,29.15
2019-05-02T02:57:41.588Z,28.15
2019-05-02T03:00:30.524Z,25.75
2019-05-02T03:03:20.695Z,27.55
2019-05-02T03:06:09.921Z,29.15
2019-05-02T03:12:26.852Z,30.12
2019-05-02T03:18:26.966Z,27.55
2019-05-02T03:21:20.787Z,27.58
2019-05-02T03:24:06.592Z,27.75
2019-05-02T03:26:57.968Z,29.98
2019-05-02T03:29:46.314Z,30.68
2019-05-02T03:32:36.307Z,29.45
2019-05-02T03:35:40.823Z,27.85
2019-05-02T03:38:16.865Z,26.73
2019-05-02T03:41:05.806Z,30.88
2019-05-02T03:44:09.829Z,28.65
2019-05-02T03:46:45.315Z,25.97
2019-05-02T03:49:34.230Z,27.05
2019-05-02T03:52:23.136Z,29.72
2019-05-02T03:55:12.038Z,26.93
2019-05-02T04:01:15.700Z,29.70
2019-05-02T04:04:04.872Z,27.20
2019-05-02T04:06:54.997Z,28.32
2019-05-02T04:09:44.410Z,26.85
2019-05-02T04:12:58.329Z,30.15
2019-05-02T04:25:33.923Z,27.93
2019-05-02T04:28:20.042Z,32.58
2019-05-02T04:31:08.883Z,30.65
2019-05-02T04:33:57.729Z,33.38
2019-05-02T04:36:47.478Z,31.02
2019-05-02T04:39:39.069Z,29.92
2019-05-02T04:42:29.446Z,27.15
2019-05-02T04:45:28.206Z,28.62
2019-05-02T04:48:08.965Z,32.30
2019-05-02T04:51:01.908Z,29.57
2019-05-02T04:53:49.872Z,30.10
2019-05-02T04:56:32.239Z,31.62
2019-05-02T04:59:22.866Z,29.72
2019-05-02T05:02:11.627Z,32.08
2019-05-02T05:05:00.515Z,35.00
2019-05-02T05:07:49.585Z,30.35
2019-05-02T05:10:41.369Z,31.82
2019-05-02T05:13:30.494Z,30.10
2019-05-02T05:16:19.322Z,33.13
2019-05-02T05:19:08.172Z,33.30
2019-05-02T05:22:04.423Z,32.80
2019-05-02T05:25:07.454Z,32.53
2019-05-02T05:28:03.412Z,34.60
2019-05-02T05:30:49.665Z,34.78
2019-05-02T05:33:38.470Z,33.42
2019-05-02T05:36:32.514Z,33.15
2019-05-02T05:39:17.903Z,31.48
2019-05-02T05:42:10.330Z,31.95
2019-05-02T05:44:58.337Z,29.90
2019-05-02T05:47:48.016Z,32.93
2019-05-02T05:50:40.175Z,32.10
2019-05-02T05:53:28.168Z,33.73
2019-05-02T05:56:10.964Z,31.80
2019-05-02T05:58:59.826Z,32.42
2019-05-02T06:01:51.536Z,30.30
2019-05-02T06:04:39.257Z,33.53
2019-05-02T06:07:28.195Z,32.65
2019-05-02T06:10:17.199Z,31.47
2019-05-02T06:13:10.996Z,32.80
2019-05-02T06:16:02.878Z,32.40
2019-05-02T06:18:47.294Z,33.43
2019-05-02T06:21:39.977Z,32.13
2019-05-02T06:24:26.775Z,33.40
2019-05-02T06:27:15.624Z,32.97
2019-05-02T06:30:27.143Z,33.70
2019-05-02T06:33:15.915Z,28.37
2019-05-02T06:36:04.884Z,32.70
2019-05-02T06:38:56.632Z,30.87
2019-05-02T06:41:44.280Z,27.53
2019-05-02T06:44:33.137Z,27.50
2019-05-02T06:47:22.139Z,24.80
2019-05-02T06:50:11.271Z,22.73
2019-05-02T06:53:04.288Z,22.47
2019-05-02T06:55:44.303Z,22.93
2019-05-02T06:58:37.188Z,19.60
2019-05-02T07:01:23.848Z,22.30
2019-05-02T07:04:17.379Z,26.00
2019-05-02T07:07:03.380Z,26.47
2019-05-02T07:09:54.426Z,26.33
2019-05-02T07:12:46.199Z,26.40
2019-05-02T07:15:52.988Z,27.47
2019-05-02T07:19:00.859Z,27.40
2019-05-02T07:21:53.201Z,23.27
2019-05-02T07:24:40.547Z,21.60
2019-05-02T07:27:33.775Z,19.57
2019-05-02T07:30:20.099Z,22.20
2019-05-02T07:33:08.948Z,24.20
2019-05-02T07:36:00.171Z,23.20
2019-05-02T07:38:48.452Z,24.50
2019-05-02T07:41:37.365Z,26.23
2019-05-02T07:44:27.067Z,26.30
2019-05-02T07:47:16.779Z,27.43
2019-05-02T07:53:34.066Z,29.10
2019-05-02T07:56:17.544Z,33.20
2019-05-02T07:59:06.771Z,29.03
2019-05-02T08:01:55.692Z,29.00
2019-05-02T08:04:44.932Z,27.57
2019-05-02T08:07:35.214Z,29.70
2019-05-02T08:10:24.137Z,29.43
2019-05-02T08:13:17.484Z,27.57
2019-05-02T08:16:03.504Z,28.87
2019-05-02T08:18:52.402Z,28.70
2019-05-02T08:21:41.253Z,28.23
2019-05-02T08:24:33.038Z,28.73
2019-05-02T08:27:22.985Z,30.60
2019-05-02T08:33:29.129Z,28.47
2019-05-02T08:36:17.024Z,29.93
2019-05-02T08:39:33.210Z,28.17
2019-05-02T08:42:17.294Z,26.47
2019-05-02T08:45:27.032Z,24.53
2019-05-02T08:48:15.866Z,27.37
2019-05-02T08:51:04.780Z,25.60
2019-05-02T08:53:56.756Z,24.67
2019-05-02T08:56:37.634Z,26.10
2019-05-02T08:59:26.470Z,23.60
2019-05-02T09:02:15.310Z,24.03
2019-05-02T09:08:32.513Z,22.53
2019-05-02T09:11:21.341Z,22.47
2019-05-02T09:14:12.465Z,22.37
2019-05-02T09:17:08.470Z,21.77
2019-05-02T09:20:01.911Z,23.17
2019-05-02T09:22:41.971Z,23.10
2019-05-02T09:25:32.427Z,20.50
2019-05-02T09:28:22.613Z,23.07
2019-05-02T09:34:22.843Z,22.60
2019-05-02T09:37:12.107Z,22.97
2019-05-02T09:40:06.756Z,23.53
2019-05-02T09:42:57.467Z,22.97
2019-05-02T09:45:44.065Z,23.37
2019-05-02T09:48:34.306Z,23.60
2019-05-02T09:51:23.153Z,24.60
2019-05-02T09:54:12.066Z,23.80
2019-05-02T09:57:02.803Z,22.97
2019-05-02T09:59:50.418Z,22.43
2019-05-02T10:02:35.106Z,22.43
2019-05-02T10:05:23.907Z,24.87
2019-05-02T10:08:13.859Z,23.80
2019-05-02T10:11:03.436Z,24.23
2019-05-02T10:13:55.304Z,24.17
2019-05-02T10:16:43.012Z,22.17
2019-05-02T10:19:32.677Z,22.40
2019-05-02T10:22:23.941Z,25.97
2019-05-02T10:28:49.147Z,22.33
2019-05-02T10:31:35.965Z,23.30
2019-05-02T10:34:22.861Z,22.77
2019-05-02T10:40:17.049Z,19.50
2019-05-02T10:43:03.986Z,19.00
2019-05-02T10:51:57.701Z,21.37
2019-05-02T10:54:46.539Z,20.20
2019-05-02T10:57:35.386Z,21.60
2019-05-02T11:03:43.734Z,22.07
2019-05-02T11:06:29.727Z,20.57
2019-05-02T11:09:24.572Z,23.07
2019-05-02T11:15:44.923Z,23.13
2019-05-02T11:18:52.856Z,19.53
2019-05-02T11:21:53.529Z,19.60
2019-05-02T11:24:32.261Z,19.43
2019-05-02T11:27:22.109Z,20.00
2019-05-02T11:30:12.222Z,20.83
2019-05-02T11:33:03.089Z,21.80
2019-05-02T11:35:53.616Z,23.30
2019-05-02T11:38:46.024Z,22.83
2019-05-02T11:41:34.301Z,20.83
2019-05-02T11:44:23.224Z,20.63
2019-05-02T11:47:12.616Z,20.13
2019-05-02T11:50:02.651Z,20.23
2019-05-02T11:52:52.298Z,21.00
2019-05-02T11:55:43.821Z,20.47
2019-05-02T11:58:32.664Z,19.67
2019-05-02T12:01:35.012Z,19.67
2019-05-02T12:04:16.741Z,19.87
2019-05-02T12:07:04.950Z,17.77
2019-05-02T12:09:56.986Z,18.93
2019-05-02T12:15:58.658Z,16.93
2019-05-02T12:18:47.876Z,18.47
2019-05-02T12:21:39.223Z,16.80
2019-05-02T12:24:27.409Z,18.90
2019-05-02T12:27:16.268Z,17.50
2019-05-02T12:36:19.912Z,16.27
2019-05-02T12:42:37.120Z,16.03
2019-05-02T12:45:25.955Z,16.40
2019-05-02T12:48:14.804Z,14.03
2019-05-02T12:51:03.616Z,14.47
2019-05-02T12:53:52.941Z,15.07
2019-05-02T12:56:43.070Z,11.93
2019-05-02T12:59:25.029Z,10.67
2019-05-02T13:05:23.343Z,11.20
2019-05-02T13:08:12.419Z,11.07
2019-05-02T13:11:22.288Z,10.07
2019-05-02T13:14:19.144Z,10.60
2019-05-02T13:17:05.472Z,11.57
2019-05-02T13:19:57.080Z,10.27
2019-05-02T13:25:52.881Z,9.87
2019-05-02T13:28:44.102Z,12.93
2019-05-02T13:34:48.637Z,11.97
2019-05-02T13:37:37.718Z,10.97
2019-05-02T13:40:45.661Z,10.43
2019-05-02T13:46:34.496Z,11.93
2019-05-02T13:49:23.429Z,9.97
2019-05-02T13:52:12.334Z,10.87
2019-05-02T13:55:01.929Z,12.13
2019-05-02T13:57:53.030Z,10.33
2019-05-02T14:00:37.527Z,11.60
2019-05-02T14:03:26.377Z,11.77
2019-05-02T14:06:15.287Z,10.20
2019-05-02T14:12:52.816Z,9.87
2019-05-02T14:15:42.630Z,11.10
2019-05-02T14:18:33.482Z,13.27
2019-05-02T14:21:22.461Z,10.50
2019-05-02T14:24:12.686Z,12.00
2019-05-02T14:27:02.591Z,14.07
2019-05-02T14:29:52.581Z,11.73
2019-05-02T14:32:42.746Z,14.37
2019-05-02T14:38:32.303Z,16.30
2019-05-02T14:44:59.925Z,19.10
2019-05-02T14:47:22.373Z,18.50
2019-05-02T14:50:23.601Z,18.37
2019-05-02T14:53:24.879Z,19.47
2019-05-02T14:56:32.928Z,19.10
2019-05-02T15:02:15.924Z,18.90
2019-05-02T15:05:29.531Z,18.03
2019-05-02T15:08:16.208Z,18.40
2019-05-02T15:11:05.126Z,20.43
2019-05-02T15:13:53.990Z,20.63
2019-05-02T15:16:45.145Z,19.03
2019-05-02T15:19:33.543Z,18.10
2019-05-02T15:22:22.905Z,19.30
2019-05-02T15:25:17.662Z,20.27
2019-05-02T15:28:03.689Z,20.33
2019-05-02T15:31:11.907Z,19.63
2019-05-02T15:34:19.780Z,23.07
2019-05-02T15:37:08.684Z,20.43
2019-05-02T15:46:03.234Z,21.17
2019-05-02T15:48:52.133Z,19.90
2019-05-02T15:51:43.731Z,21.03
2019-05-02T15:54:32.192Z,17.70
2019-05-02T15:57:24.820Z,18.67
2019-05-02T16:00:10.118Z,22.10
2019-05-02T16:03:01.459Z,25.53
2019-05-02T16:05:49.651Z,26.57
2019-05-02T16:11:52.222Z,22.83
2019-05-02T16:14:38.576Z,16.97
2019-05-02T16:21:04.907Z,22.50
2019-05-02T16:23:32.747Z,19.50
2019-05-02T16:26:17.893Z,20.57
2019-05-02T16:29:28.464Z,21.23
2019-05-02T16:32:37.807Z,23.57
2019-05-02T16:38:35.950Z,22.47
2019-05-02T16:41:24.791Z,24.17
2019-05-02T16:44:13.655Z,24.10
2019-05-02T16:50:35.408Z,21.50
2019-05-02T16:53:24.990Z,21.63
2019-05-02T16:56:12.260Z,20.17
2019-05-02T16:59:02.022Z,20.40
2019-05-02T17:01:42.790Z,19.33
2019-05-02T17:04:31.931Z,18.30
2019-05-02T17:10:37.250Z,20.10
2019-05-02T17:13:27.422Z,19.07
2019-05-02T17:16:17.334Z,16.30
2019-05-02T17:19:07.530Z,14.37
2019-05-02T17:21:56.684Z,14.50
2019-05-02T17:24:47.018Z,15.10
2019-05-02T17:27:35.921Z,15.17
2019-05-02T17:30:24.766Z,14.00
2019-05-02T17:33:16.265Z,13.57
2019-05-02T17:39:19.429Z,14.30
2019-05-02T17:42:08.297Z,11.90
2019-05-02T17:44:37.822Z,13.90
2019-05-02T17:47:30.920Z,13.30
2019-05-02T17:53:49.804Z,12.00
2019-05-02T17:56:36.143Z,11.53
2019-05-02T17:59:28.321Z,13.17
2019-05-02T18:02:14.220Z,13.20
2019-05-02T18:04:59.523Z,13.40
2019-05-02T18:07:48.459Z,13.47
2019-05-02T18:10:37.302Z,14.47
2019-05-02T18:13:29.262Z,13.37
2019-05-02T18:16:16.896Z,13.50
2019-05-02T18:19:05.845Z,14.70
2019-05-02T18:21:58.293Z,13.83
2019-05-02T18:24:46.463Z,18.40
2019-05-02T18:27:35.854Z,14.17
2019-05-02T18:30:26.922Z,14.40
2019-05-02T18:33:15.375Z,16.53
2019-05-02T18:36:04.669Z,15.63
2019-05-02T18:39:00.214Z,14.40
2019-05-02T18:41:46.366Z,15.00
2019-05-02T18:44:35.247Z,16.30
2019-05-02T18:47:24.893Z,17.43
2019-05-02T18:50:36.883Z,18.53
2019-05-02T18:53:27.387Z,16.83
2019-05-02T18:56:16.601Z,15.30
2019-05-02T18:59:05.603Z,14.73
2019-05-02T19:01:51.976Z,14.30
2019-05-02T19:04:39.812Z,14.87
2019-05-02T19:07:32.948Z,15.30
2019-05-02T19:10:19.430Z,15.97
2019-05-02T19:13:08.525Z,14.87
2019-05-02T19:15:57.383Z,14.43
2019-05-02T19:18:48.936Z,16.60
2019-05-02T19:21:39.456Z,17.17
2019-05-02T19:24:34.965Z,15.57
2019-05-02T19:33:29.124Z,14.30
2019-05-02T19:36:24.338Z,15.63
2019-05-02T19:39:09.961Z,16.97
2019-05-02T19:42:01.779Z,14.77
2019-05-02T19:44:52.644Z,15.23
2019-05-02T19:47:42.131Z,16.30
2019-05-02T19:50:52.769Z,17.07
2019-05-02T19:53:42.604Z,15.43
2019-05-02T19:56:43.207Z,16.67
2019-05-02T19:59:34.261Z,15.73
2019-05-02T20:02:16.562Z,17.63
2019-05-02T20:08:24.365Z,15.60
2019-05-02T20:14:46.082Z,16.10
2019-05-02T20:17:32.582Z,17.53
2019-05-02T20:21:02.599Z,15.57
2019-05-02T20:23:52.156Z,17.03
2019-05-02T20:26:41.779Z,16.53
2019-05-02T20:29:32.155Z,16.57
2019-05-02T20:32:22.380Z,17.07
2019-05-02T20:35:12.421Z,18.40
2019-05-02T20:38:01.860Z,20.17
2019-05-02T20:40:52.193Z,16.83
2019-05-02T20:43:44.687Z,16.10
2019-05-02T20:46:32.622Z,17.50
2019-05-02T20:49:22.776Z,16.23
2019-05-02T20:52:12.019Z,14.70
2019-05-02T20:55:02.351Z,17.00
2019-05-02T20:57:52.723Z,15.47
2019-05-02T21:00:42.697Z,14.60
2019-05-02T21:03:25.476Z,16.30
2019-05-02T21:09:33.272Z,22.00
2019-05-02T21:12:22.214Z,20.83
2019-05-02T21:15:12.498Z,15.67
2019-05-02T21:18:02.325Z,14.90
2019-05-02T21:20:52.713Z,14.63
2019-05-02T21:23:47.174Z,13.57
2019-05-02T21:26:32.878Z,11.73
2019-05-02T21:29:22.974Z,9.00
2019-05-02T21:32:12.073Z,10.27
2019-05-02T21:35:02.888Z,9.30
2019-05-02T21:37:52.994Z,9.18
2019-05-02T21:40:42.302Z,9.58
2019-05-02T21:43:32.485Z,8.80
2019-05-02T21:46:22.358Z,9.08
2019-05-02T21:58:07.642Z,7.42
2019-05-02T22:04:18.176Z,8.05
2019-05-02T22:07:07.094Z,8.43
2019-05-02T22:09:55.939Z,6.70
2019-05-02T22:12:44.806Z,8.38
2019-05-02T22:15:33.663Z,7.92
2019-05-02T22:18:22.509Z,7.72
2019-05-02T22:21:12.310Z,8.45
2019-05-02T22:24:10.468Z,8.25
2019-05-02T22:26:52.734Z,7.28
2019-05-02T22:29:43.121Z,8.60
2019-05-02T22:32:32.201Z,7.83
2019-05-02T22:35:21.718Z,7.47
2019-05-02T22:38:31.806Z,7.37
2019-05-02T22:41:22.111Z,8.63
2019-05-02T22:44:12.495Z,6.65
2019-05-02T22:49:52.668Z,6.75
2019-05-02T22:52:41.674Z,7.50
2019-05-02T22:55:31.993Z,6.33
2019-05-02T22:58:22.189Z,6.87
2019-05-02T23:01:11.677Z,7.62
2019-05-02T23:03:53.158Z,5.50
2019-05-02T23:06:44.141Z,5.30
2019-05-02T23:09:32.541Z,7.25
2019-05-02T23:12:22.544Z,7.53
2019-05-02T23:15:12.569Z,7.08
2019-05-02T23:18:02.765Z,7.90
2019-05-02T23:20:52.606Z,6.65
2019-05-02T23:23:42.174Z,6.30
2019-05-02T23:26:51.778Z,7.87
2019-05-02T23:29:42.445Z,7.33
2019-05-02T23:32:31.675Z,7.12
2019-05-02T23:35:21.888Z,6.90
2019-05-02T23:38:12.486Z,7.83
2019-05-02T23:41:02.080Z,8.23
2019-05-02T23:43:52.433Z,8.58
2019-05-02T23:46:42.580Z,7.47
2019-05-02T23:49:32.469Z,7.70
2019-05-02T23:52:22.517Z,6.80
2019-05-02T23:55:12.522Z,8.25
2019-05-02T23:58:02.916Z,7.17
